sensor_id;sensor_type;location;lat;lon;timestamp;P1;durP1;ratioP1;P2;durP2;ratioP2
9481;SDS011;4779;48.062;11.672;2023-03-08T00:01:33;13.43;;;10.07;;
9481;SDS011;4779;48.062;11.672;2023-03-08T00:04:00;10.73;;;9.10;;
9481;SDS011;4779;48.062;11.672;2023-03-08T00:06:27;12.37;;;9.40;;
9481;SDS011;4779;48.062;11.672;2023-03-08T00:08:54;12.47;;;9.50;;
9481;SDS011;4779;48.062;11.672;2023-03-08T00:11:22;10.67;;;8.57;;
9481;SDS011;4779;48.062;11.672;2023-03-08T00:13:49;10.20;;;9.00;;
9481;SDS011;4779;48.062;11.672;2023-03-08T00:16:18;12.23;;;9.53;;
9481;SDS011;4779;48.062;11.672;2023-03-08T00:18:44;11.97;;;9.53;;
9481;SDS011;4779;48.062;11.672;2023-03-08T00:21:12;9.07;;;8.17;;
9481;SDS011;4779;48.062;11.672;2023-03-08T00:23:40;10.43;;;8.67;;
9481;SDS011;4779;48.062;11.672;2023-03-08T00:26:09;11.27;;;9.23;;
9481;SDS011;4779;48.062;11.672;2023-03-08T00:28:36;12.67;;;9.07;;
9481;SDS011;4779;48.062;11.672;2023-03-08T00:31:04;14.27;;;9.50;;
9481;SDS011;4779;48.062;11.672;2023-03-08T00:33:34;11.83;;;8.93;;
9481;SDS011;4779;48.062;11.672;2023-03-08T00:36:02;11.70;;;8.87;;
9481;SDS011;4779;48.062;11.672;2023-03-08T00:38:31;11.97;;;9.30;;
9481;SDS011;4779;48.062;11.672;2023-03-08T00:40:59;9.50;;;8.50;;
9481;SDS011;4779;48.062;11.672;2023-03-08T00:43:26;9.93;;;8.43;;
9481;SDS011;4779;48.062;11.672;2023-03-08T00:45:53;11.23;;;8.17;;
9481;SDS011;4779;48.062;11.672;2023-03-08T00:48:20;10.43;;;8.97;;
9481;SDS011;4779;48.062;11.672;2023-03-08T00:50:49;10.73;;;8.43;;
9481;SDS011;4779;48.062;11.672;2023-03-08T00:53:16;10.23;;;8.40;;
9481;SDS011;4779;48.062;11.672;2023-03-08T00:55:47;9.93;;;8.03;;
9481;SDS011;4779;48.062;11.672;2023-03-08T00:58:14;10.53;;;8.37;;
9481;SDS011;4779;48.062;11.672;2023-03-08T01:00:41;11.20;;;8.00;;
9481;SDS011;4779;48.062;11.672;2023-03-08T01:03:08;8.97;;;7.67;;
9481;SDS011;4779;48.062;11.672;2023-03-08T01:05:37;11.60;;;8.63;;
9481;SDS011;4779;48.062;11.672;2023-03-08T01:08:06;10.80;;;8.03;;
9481;SDS011;4779;48.062;11.672;2023-03-08T01:10:33;10.77;;;8.13;;
9481;SDS011;4779;48.062;11.672;2023-03-08T01:13:02;11.03;;;8.30;;
9481;SDS011;4779;48.062;11.672;2023-03-08T01:15:30;9.87;;;8.30;;
9481;SDS011;4779;48.062;11.672;2023-03-08T01:18:01;10.63;;;7.87;;
9481;SDS011;4779;48.062;11.672;2023-03-08T01:20:27;8.80;;;7.90;;
9481;SDS011;4779;48.062;11.672;2023-03-08T01:22:54;9.00;;;7.80;;
9481;SDS011;4779;48.062;11.672;2023-03-08T01:25:23;9.30;;;8.00;;
9481;SDS011;4779;48.062;11.672;2023-03-08T01:27:50;9.83;;;7.93;;
9481;SDS011;4779;48.062;11.672;2023-03-08T01:30:17;10.20;;;8.00;;
9481;SDS011;4779;48.062;11.672;2023-03-08T01:32:44;9.00;;;7.57;;
9481;SDS011;4779;48.062;11.672;2023-03-08T01:35:11;10.97;;;7.57;;
9481;SDS011;4779;48.062;11.672;2023-03-08T01:37:37;10.13;;;8.47;;
9481;SDS011;4779;48.062;11.672;2023-03-08T01:40:05;9.33;;;7.63;;
9481;SDS011;4779;48.062;11.672;2023-03-08T01:42:35;11.13;;;8.27;;
9481;SDS011;4779;48.062;11.672;2023-03-08T01:45:05;9.27;;;7.83;;
9481;SDS011;4779;48.062;11.672;2023-03-08T01:47:52;9.47;;;7.57;;
9481;SDS011;4779;48.062;11.672;2023-03-08T01:50:19;9.03;;;7.23;;
9481;SDS011;4779;48.062;11.672;2023-03-08T01:52:47;8.93;;;7.80;;
9481;SDS011;4779;48.062;11.672;2023-03-08T01:55:18;9.90;;;7.90;;
9481;SDS011;4779;48.062;11.672;2023-03-08T01:57:48;10.10;;;8.07;;
9481;SDS011;4779;48.062;11.672;2023-03-08T02:00:18;9.67;;;7.50;;
9481;SDS011;4779;48.062;11.672;2023-03-08T02:02:47;9.40;;;7.70;;
9481;SDS011;4779;48.062;11.672;2023-03-08T02:05:17;8.93;;;7.77;;
9481;SDS011;4779;48.062;11.672;2023-03-08T02:07:45;10.03;;;8.67;;
9481;SDS011;4779;48.062;11.672;2023-03-08T02:10:12;10.97;;;8.70;;
9481;SDS011;4779;48.062;11.672;2023-03-08T02:12:39;8.97;;;7.80;;
9481;SDS011;4779;48.062;11.672;2023-03-08T02:15:08;10.30;;;7.50;;
9481;SDS011;4779;48.062;11.672;2023-03-08T02:17:37;10.90;;;8.47;;
9481;SDS011;4779;48.062;11.672;2023-03-08T02:20:07;10.63;;;8.70;;
9481;SDS011;4779;48.062;11.672;2023-03-08T02:22:40;12.20;;;9.17;;
9481;SDS011;4779;48.062;11.672;2023-03-08T02:25:09;11.10;;;8.67;;
9481;SDS011;4779;48.062;11.672;2023-03-08T02:27:39;13.30;;;9.23;;
9481;SDS011;4779;48.062;11.672;2023-03-08T02:30:08;9.63;;;8.50;;
9481;SDS011;4779;48.062;11.672;2023-03-08T03:03:34;9.83;;;8.57;;
9481;SDS011;4779;48.062;11.672;2023-03-08T03:06:01;10.73;;;8.20;;
9481;SDS011;4779;48.062;11.672;2023-03-08T03:08:28;10.20;;;9.10;;
9481;SDS011;4779;48.062;11.672;2023-03-08T03:10:55;12.43;;;9.00;;
9481;SDS011;4779;48.062;11.672;2023-03-08T03:13:22;9.97;;;8.90;;
9481;SDS011;4779;48.062;11.672;2023-03-08T03:15:49;11.97;;;8.63;;
9481;SDS011;4779;48.062;11.672;2023-03-08T03:18:16;10.23;;;9.03;;
9481;SDS011;4779;48.062;11.672;2023-03-08T03:20:44;11.57;;;9.50;;
9481;SDS011;4779;48.062;11.672;2023-03-08T03:23:11;12.03;;;9.67;;
9481;SDS011;4779;48.062;11.672;2023-03-08T03:25:38;11.20;;;8.83;;
9481;SDS011;4779;48.062;11.672;2023-03-08T03:28:06;11.37;;;9.23;;
9481;SDS011;4779;48.062;11.672;2023-03-08T03:30:33;13.50;;;9.90;;
9481;SDS011;4779;48.062;11.672;2023-03-08T03:33:00;12.47;;;9.00;;
9481;SDS011;4779;48.062;11.672;2023-03-08T03:35:27;11.33;;;8.63;;
9481;SDS011;4779;48.062;11.672;2023-03-08T03:37:55;10.37;;;8.53;;
9481;SDS011;4779;48.062;11.672;2023-03-08T03:40:22;11.50;;;9.53;;
9481;SDS011;4779;48.062;11.672;2023-03-08T03:42:49;10.90;;;9.13;;
9481;SDS011;4779;48.062;11.672;2023-03-08T03:45:15;10.77;;;8.70;;
9481;SDS011;4779;48.062;11.672;2023-03-08T03:47:42;10.60;;;8.63;;
9481;SDS011;4779;48.062;11.672;2023-03-08T03:50:10;10.97;;;9.10;;
9481;SDS011;4779;48.062;11.672;2023-03-08T03:52:37;12.77;;;8.90;;
9481;SDS011;4779;48.062;11.672;2023-03-08T03:55:06;11.33;;;9.33;;
9481;SDS011;4779;48.062;11.672;2023-03-08T03:57:34;10.23;;;8.50;;
9481;SDS011;4779;48.062;11.672;2023-03-08T04:00:01;11.10;;;8.93;;
9481;SDS011;4779;48.062;11.672;2023-03-08T04:02:29;10.97;;;8.73;;
9481;SDS011;4779;48.062;11.672;2023-03-08T04:04:56;11.80;;;9.70;;
9481;SDS011;4779;48.062;11.672;2023-03-08T04:07:23;9.70;;;8.30;;
9481;SDS011;4779;48.062;11.672;2023-03-08T04:09:50;11.10;;;9.30;;
9481;SDS011;4779;48.062;11.672;2023-03-08T04:12:18;10.07;;;8.47;;
9481;SDS011;4779;48.062;11.672;2023-03-08T04:14:45;11.17;;;8.57;;
9481;SDS011;4779;48.062;11.672;2023-03-08T04:17:12;9.83;;;8.77;;
9481;SDS011;4779;48.062;11.672;2023-03-08T04:19:39;10.57;;;8.17;;
9481;SDS011;4779;48.062;11.672;2023-03-08T04:22:06;10.03;;;8.73;;
9481;SDS011;4779;48.062;11.672;2023-03-08T04:24:33;11.77;;;9.27;;
9481;SDS011;4779;48.062;11.672;2023-03-08T04:27:00;11.20;;;9.10;;
9481;SDS011;4779;48.062;11.672;2023-03-08T04:29:28;10.87;;;9.30;;
9481;SDS011;4779;48.062;11.672;2023-03-08T04:31:55;14.23;;;9.77;;
9481;SDS011;4779;48.062;11.672;2023-03-08T04:34:24;12.03;;;10.03;;
9481;SDS011;4779;48.062;11.672;2023-03-08T04:36:51;11.37;;;9.43;;
9481;SDS011;4779;48.062;11.672;2023-03-08T04:39:18;12.13;;;9.70;;
9481;SDS011;4779;48.062;11.672;2023-03-08T04:41:44;9.87;;;8.87;;
9481;SDS011;4779;48.062;11.672;2023-03-08T04:44:11;14.63;;;9.27;;
9481;SDS011;4779;48.062;11.672;2023-03-08T04:46:40;12.30;;;10.17;;
9481;SDS011;4779;48.062;11.672;2023-03-08T04:49:06;11.73;;;8.87;;
9481;SDS011;4779;48.062;11.672;2023-03-08T04:51:33;11.47;;;9.00;;
9481;SDS011;4779;48.062;11.672;2023-03-08T04:54:00;12.27;;;9.83;;
9481;SDS011;4779;48.062;11.672;2023-03-08T04:56:28;14.57;;;10.20;;
9481;SDS011;4779;48.062;11.672;2023-03-08T04:58:55;13.13;;;10.20;;
9481;SDS011;4779;48.062;11.672;2023-03-08T05:01:22;13.83;;;11.03;;
9481;SDS011;4779;48.062;11.672;2023-03-08T05:03:51;17.77;;;13.93;;
9481;SDS011;4779;48.062;11.672;2023-03-08T05:06:19;21.63;;;17.93;;
9481;SDS011;4779;48.062;11.672;2023-03-08T05:08:47;27.13;;;20.87;;
9481;SDS011;4779;48.062;11.672;2023-03-08T05:11:16;26.07;;;20.13;;
9481;SDS011;4779;48.062;11.672;2023-03-08T05:13:44;31.63;;;22.67;;
9481;SDS011;4779;48.062;11.672;2023-03-08T05:16:11;37.77;;;25.47;;
9481;SDS011;4779;48.062;11.672;2023-03-08T05:18:38;47.67;;;32.97;;
9481;SDS011;4779;48.062;11.672;2023-03-08T05:21:09;47.63;;;34.10;;
9481;SDS011;4779;48.062;11.672;2023-03-08T05:23:37;46.03;;;31.13;;
9481;SDS011;4779;48.062;11.672;2023-03-08T05:26:04;38.17;;;26.23;;
9481;SDS011;4779;48.062;11.672;2023-03-08T05:28:33;25.10;;;17.13;;
9481;SDS011;4779;48.062;11.672;2023-03-08T05:31:02;20.63;;;14.97;;
9481;SDS011;4779;48.062;11.672;2023-03-08T05:33:30;19.77;;;14.83;;
9481;SDS011;4779;48.062;11.672;2023-03-08T05:35:58;22.97;;;17.03;;
9481;SDS011;4779;48.062;11.672;2023-03-08T05:38:26;25.20;;;16.63;;
9481;SDS011;4779;48.062;11.672;2023-03-08T05:40:53;21.70;;;17.27;;
9481;SDS011;4779;48.062;11.672;2023-03-08T05:43:20;25.20;;;19.13;;
9481;SDS011;4779;48.062;11.672;2023-03-08T05:45:54;24.70;;;19.30;;
9481;SDS011;4779;48.062;11.672;2023-03-08T05:48:22;28.57;;;20.83;;
9481;SDS011;4779;48.062;11.672;2023-03-08T05:50:49;20.87;;;17.13;;
9481;SDS011;4779;48.062;11.672;2023-03-08T05:53:16;18.63;;;14.93;;
9481;SDS011;4779;48.062;11.672;2023-03-08T05:55:45;19.07;;;13.00;;
9481;SDS011;4779;48.062;11.672;2023-03-08T05:58:12;16.70;;;13.00;;
9481;SDS011;4779;48.062;11.672;2023-03-08T06:00:39;15.87;;;13.27;;
9481;SDS011;4779;48.062;11.672;2023-03-08T06:03:06;14.07;;;12.37;;
9481;SDS011;4779;48.062;11.672;2023-03-08T06:05:33;15.70;;;12.43;;
9481;SDS011;4779;48.062;11.672;2023-03-08T06:08:00;15.93;;;12.70;;
9481;SDS011;4779;48.062;11.672;2023-03-08T06:10:27;15.97;;;12.97;;
9481;SDS011;4779;48.062;11.672;2023-03-08T06:12:56;16.37;;;13.03;;
9481;SDS011;4779;48.062;11.672;2023-03-08T06:15:23;15.90;;;12.83;;
9481;SDS011;4779;48.062;11.672;2023-03-08T06:17:50;15.90;;;12.80;;
9481;SDS011;4779;48.062;11.672;2023-03-08T06:20:18;14.87;;;12.20;;
9481;SDS011;4779;48.062;11.672;2023-03-08T06:22:45;14.53;;;12.60;;
9481;SDS011;4779;48.062;11.672;2023-03-08T06:25:12;17.20;;;13.27;;
9481;SDS011;4779;48.062;11.672;2023-03-08T06:27:39;13.47;;;12.03;;
9481;SDS011;4779;48.062;11.672;2023-03-08T06:30:08;18.43;;;12.50;;
9481;SDS011;4779;48.062;11.672;2023-03-08T06:32:36;17.10;;;12.77;;
9481;SDS011;4779;48.062;11.672;2023-03-08T06:35:03;13.13;;;11.50;;
9481;SDS011;4779;48.062;11.672;2023-03-08T06:37:31;14.50;;;12.37;;
9481;SDS011;4779;48.062;11.672;2023-03-08T06:40:00;13.70;;;12.07;;
9481;SDS011;4779;48.062;11.672;2023-03-08T06:42:29;16.47;;;11.80;;
9481;SDS011;4779;48.062;11.672;2023-03-08T06:44:58;15.53;;;12.50;;
9481;SDS011;4779;48.062;11.672;2023-03-08T06:47:28;18.13;;;12.30;;
9481;SDS011;4779;48.062;11.672;2023-03-08T06:49:58;16.17;;;11.97;;
9481;SDS011;4779;48.062;11.672;2023-03-08T06:52:30;14.73;;;11.63;;
9481;SDS011;4779;48.062;11.672;2023-03-08T06:55:02;16.00;;;12.80;;
9481;SDS011;4779;48.062;11.672;2023-03-08T06:57:30;16.27;;;12.07;;
9481;SDS011;4779;48.062;11.672;2023-03-08T06:59:58;15.37;;;12.13;;
9481;SDS011;4779;48.062;11.672;2023-03-08T07:02:29;17.00;;;12.40;;
9481;SDS011;4779;48.062;11.672;2023-03-08T07:04:56;16.60;;;12.47;;
9481;SDS011;4779;48.062;11.672;2023-03-08T07:07:23;16.73;;;11.73;;
9481;SDS011;4779;48.062;11.672;2023-03-08T07:09:50;14.87;;;12.13;;
9481;SDS011;4779;48.062;11.672;2023-03-08T07:12:17;14.70;;;11.40;;
9481;SDS011;4779;48.062;11.672;2023-03-08T07:14:44;14.80;;;11.97;;
9481;SDS011;4779;48.062;11.672;2023-03-08T07:17:12;16.13;;;12.43;;
9481;SDS011;4779;48.062;11.672;2023-03-08T07:19:40;13.23;;;10.63;;
9481;SDS011;4779;48.062;11.672;2023-03-08T07:22:07;15.23;;;12.17;;
9481;SDS011;4779;48.062;11.672;2023-03-08T07:24:34;14.47;;;11.27;;
9481;SDS011;4779;48.062;11.672;2023-03-08T07:27:01;16.23;;;11.87;;
9481;SDS011;4779;48.062;11.672;2023-03-08T07:29:28;14.20;;;11.30;;
9481;SDS011;4779;48.062;11.672;2023-03-08T07:31:55;13.10;;;11.57;;
9481;SDS011;4779;48.062;11.672;2023-03-08T07:34:22;13.27;;;11.57;;
9481;SDS011;4779;48.062;11.672;2023-03-08T07:36:50;13.07;;;11.30;;
9481;SDS011;4779;48.062;11.672;2023-03-08T07:39:17;15.37;;;11.67;;
9481;SDS011;4779;48.062;11.672;2023-03-08T07:41:44;14.00;;;11.60;;
9481;SDS011;4779;48.062;11.672;2023-03-08T07:44:11;13.27;;;11.10;;
9481;SDS011;4779;48.062;11.672;2023-03-08T07:46:38;14.33;;;12.23;;
9481;SDS011;4779;48.062;11.672;2023-03-08T07:49:05;15.03;;;11.13;;
9481;SDS011;4779;48.062;11.672;2023-03-08T07:51:34;13.10;;;10.17;;
9481;SDS011;4779;48.062;11.672;2023-03-08T07:54:03;13.00;;;10.20;;
9481;SDS011;4779;48.062;11.672;2023-03-08T07:56:30;15.57;;;11.40;;
9481;SDS011;4779;48.062;11.672;2023-03-08T07:58:56;15.07;;;11.33;;
9481;SDS011;4779;48.062;11.672;2023-03-08T08:01:24;13.00;;;11.20;;
9481;SDS011;4779;48.062;11.672;2023-03-08T08:03:51;12.83;;;11.27;;
9481;SDS011;4779;48.062;11.672;2023-03-08T08:06:17;14.97;;;11.60;;
9481;SDS011;4779;48.062;11.672;2023-03-08T08:08:44;13.50;;;11.17;;
9481;SDS011;4779;48.062;11.672;2023-03-08T08:11:13;16.37;;;11.93;;
9481;SDS011;4779;48.062;11.672;2023-03-08T08:13:41;15.37;;;12.73;;
9481;SDS011;4779;48.062;11.672;2023-03-08T08:16:08;16.67;;;12.13;;
9481;SDS011;4779;48.062;11.672;2023-03-08T08:18:36;16.70;;;12.90;;
9481;SDS011;4779;48.062;11.672;2023-03-08T08:21:03;13.73;;;11.50;;
9481;SDS011;4779;48.062;11.672;2023-03-08T08:23:31;15.27;;;11.90;;
9481;SDS011;4779;48.062;11.672;2023-03-08T08:25:59;14.17;;;11.03;;
9481;SDS011;4779;48.062;11.672;2023-03-08T08:28:31;15.50;;;12.17;;
9481;SDS011;4779;48.062;11.672;2023-03-08T08:30:59;15.10;;;12.00;;
9481;SDS011;4779;48.062;11.672;2023-03-08T08:33:28;13.33;;;11.40;;
9481;SDS011;4779;48.062;11.672;2023-03-08T08:35:56;13.37;;;11.33;;
9481;SDS011;4779;48.062;11.672;2023-03-08T08:38:24;13.37;;;11.07;;
9481;SDS011;4779;48.062;11.672;2023-03-08T08:40:51;12.53;;;11.10;;
9481;SDS011;4779;48.062;11.672;2023-03-08T08:43:19;12.60;;;10.67;;
9481;SDS011;4779;48.062;11.672;2023-03-08T08:45:51;13.13;;;10.60;;
9481;SDS011;4779;48.062;11.672;2023-03-08T08:48:20;13.13;;;10.87;;
9481;SDS011;4779;48.062;11.672;2023-03-08T08:50:47;12.63;;;10.83;;
9481;SDS011;4779;48.062;11.672;2023-03-08T08:53:15;12.80;;;10.37;;
9481;SDS011;4779;48.062;11.672;2023-03-08T08:55:42;13.87;;;11.20;;
9481;SDS011;4779;48.062;11.672;2023-03-08T08:58:09;12.40;;;10.50;;
9481;SDS011;4779;48.062;11.672;2023-03-08T09:00:37;13.70;;;11.13;;
9481;SDS011;4779;48.062;11.672;2023-03-08T09:03:05;13.60;;;11.37;;
9481;SDS011;4779;48.062;11.672;2023-03-08T09:05:36;14.20;;;12.13;;
9481;SDS011;4779;48.062;11.672;2023-03-08T09:08:04;13.47;;;11.77;;
9481;SDS011;4779;48.062;11.672;2023-03-08T09:10:34;14.13;;;12.27;;
9481;SDS011;4779;48.062;11.672;2023-03-08T09:13:06;16.53;;;12.80;;
9481;SDS011;4779;48.062;11.672;2023-03-08T09:15:34;18.30;;;13.83;;
9481;SDS011;4779;48.062;11.672;2023-03-08T09:18:01;15.20;;;13.30;;
9481;SDS011;4779;48.062;11.672;2023-03-08T09:20:30;17.83;;;12.70;;
9481;SDS011;4779;48.062;11.672;2023-03-08T09:22:57;16.50;;;13.07;;
9481;SDS011;4779;48.062;11.672;2023-03-08T09:25:24;18.23;;;13.97;;
9481;SDS011;4779;48.062;11.672;2023-03-08T09:27:51;17.47;;;14.87;;
9481;SDS011;4779;48.062;11.672;2023-03-08T09:30:18;14.87;;;13.13;;
9481;SDS011;4779;48.062;11.672;2023-03-08T09:32:45;18.73;;;14.10;;
9481;SDS011;4779;48.062;11.672;2023-03-08T09:35:12;16.47;;;13.73;;
9481;SDS011;4779;48.062;11.672;2023-03-08T09:37:41;15.43;;;13.03;;
9481;SDS011;4779;48.062;11.672;2023-03-08T09:40:11;17.47;;;14.17;;
9481;SDS011;4779;48.062;11.672;2023-03-08T09:42:45;17.77;;;13.77;;
9481;SDS011;4779;48.062;11.672;2023-03-08T09:45:15;19.07;;;14.47;;
9481;SDS011;4779;48.062;11.672;2023-03-08T09:47:48;15.80;;;13.37;;
9481;SDS011;4779;48.062;11.672;2023-03-08T09:50:34;15.80;;;13.83;;
9481;SDS011;4779;48.062;11.672;2023-03-08T09:53:15;17.43;;;13.63;;
9481;SDS011;4779;48.062;11.672;2023-03-08T09:55:48;15.03;;;13.20;;
9481;SDS011;4779;48.062;11.672;2023-03-08T09:58:22;16.47;;;13.37;;
9481;SDS011;4779;48.062;11.672;2023-03-08T10:00:58;18.10;;;14.53;;
9481;SDS011;4779;48.062;11.672;2023-03-08T10:06:44;14.83;;;13.00;;
9481;SDS011;4779;48.062;11.672;2023-03-08T10:09:23;15.73;;;13.17;;
9481;SDS011;4779;48.062;11.672;2023-03-08T10:11:59;15.23;;;13.60;;
9481;SDS011;4779;48.062;11.672;2023-03-08T10:14:37;15.27;;;13.63;;
9481;SDS011;4779;48.062;11.672;2023-03-08T10:17:08;15.63;;;13.33;;
9481;SDS011;4779;48.062;11.672;2023-03-08T10:19:41;15.47;;;13.03;;
9481;SDS011;4779;48.062;11.672;2023-03-08T10:22:14;14.30;;;12.57;;
9481;SDS011;4779;48.062;11.672;2023-03-08T10:24:51;17.30;;;13.47;;
9481;SDS011;4779;48.062;11.672;2023-03-08T10:27:23;15.27;;;13.50;;
9481;SDS011;4779;48.062;11.672;2023-03-08T10:29:53;15.73;;;13.20;;
9481;SDS011;4779;48.062;11.672;2023-03-08T10:32:21;15.23;;;12.93;;
9481;SDS011;4779;48.062;11.672;2023-03-08T10:34:50;15.57;;;13.53;;
9481;SDS011;4779;48.062;11.672;2023-03-08T10:37:18;13.83;;;12.33;;
9481;SDS011;4779;48.062;11.672;2023-03-08T10:39:50;16.13;;;13.30;;
9481;SDS011;4779;48.062;11.672;2023-03-08T10:42:19;14.87;;;12.63;;
9481;SDS011;4779;48.062;11.672;2023-03-08T10:44:53;14.90;;;13.20;;
9481;SDS011;4779;48.062;11.672;2023-03-08T10:47:24;17.07;;;13.13;;
9481;SDS011;4779;48.062;11.672;2023-03-08T10:50:05;16.07;;;13.47;;
9481;SDS011;4779;48.062;11.672;2023-03-08T10:52:42;15.00;;;12.20;;
9481;SDS011;4779;48.062;11.672;2023-03-08T10:55:12;15.27;;;13.40;;
9481;SDS011;4779;48.062;11.672;2023-03-08T10:57:41;16.10;;;13.67;;
9481;SDS011;4779;48.062;11.672;2023-03-08T11:00:23;15.97;;;12.90;;
9481;SDS011;4779;48.062;11.672;2023-03-08T11:03:03;15.47;;;13.67;;
9481;SDS011;4779;48.062;11.672;2023-03-08T11:05:37;17.33;;;13.57;;
9481;SDS011;4779;48.062;11.672;2023-03-08T11:08:13;20.43;;;13.57;;
9481;SDS011;4779;48.062;11.672;2023-03-08T11:10:45;14.60;;;11.77;;
9481;SDS011;4779;48.062;11.672;2023-03-08T11:13:17;13.13;;;11.77;;
9481;SDS011;4779;48.062;11.672;2023-03-08T11:15:49;17.20;;;12.97;;
9481;SDS011;4779;48.062;11.672;2023-03-08T11:18:24;14.50;;;12.00;;
9481;SDS011;4779;48.062;11.672;2023-03-08T11:20:59;13.10;;;11.17;;
9481;SDS011;4779;48.062;11.672;2023-03-08T11:23:33;13.80;;;10.57;;
9481;SDS011;4779;48.062;11.672;2023-03-08T11:26:07;14.93;;;11.37;;
9481;SDS011;4779;48.062;11.672;2023-03-08T11:28:44;13.33;;;11.70;;
9481;SDS011;4779;48.062;11.672;2023-03-08T11:31:32;14.93;;;12.27;;
9481;SDS011;4779;48.062;11.672;2023-03-08T11:34:11;16.20;;;12.97;;
9481;SDS011;4779;48.062;11.672;2023-03-08T11:36:49;13.63;;;11.63;;
9481;SDS011;4779;48.062;11.672;2023-03-08T11:39:23;10.53;;;8.40;;
9481;SDS011;4779;48.062;11.672;2023-03-08T11:41:57;12.07;;;9.57;;
9481;SDS011;4779;48.062;11.672;2023-03-08T11:44:34;11.27;;;9.47;;
9481;SDS011;4779;48.062;11.672;2023-03-08T11:50:30;10.37;;;8.60;;
9481;SDS011;4779;48.062;11.672;2023-03-08T11:53:01;12.77;;;9.77;;
9481;SDS011;4779;48.062;11.672;2023-03-08T11:55:45;12.63;;;11.20;;
9481;SDS011;4779;48.062;11.672;2023-03-08T11:58:29;12.57;;;9.97;;
9481;SDS011;4779;48.062;11.672;2023-03-08T12:00:59;11.43;;;9.60;;
9481;SDS011;4779;48.062;11.672;2023-03-08T12:03:29;12.13;;;10.23;;
9481;SDS011;4779;48.062;11.672;2023-03-08T12:06:01;12.90;;;9.47;;
9481;SDS011;4779;48.062;11.672;2023-03-08T12:08:33;11.10;;;9.33;;
9481;SDS011;4779;48.062;11.672;2023-03-08T12:11:04;13.43;;;10.43;;
9481;SDS011;4779;48.062;11.672;2023-03-08T12:13:38;12.03;;;10.07;;
9481;SDS011;4779;48.062;11.672;2023-03-08T12:16:08;12.63;;;10.53;;
9481;SDS011;4779;48.062;11.672;2023-03-08T12:18:41;14.93;;;12.63;;
9481;SDS011;4779;48.062;11.672;2023-03-08T12:21:13;15.97;;;12.43;;
9481;SDS011;4779;48.062;11.672;2023-03-08T12:23:47;13.67;;;11.37;;
9481;SDS011;4779;48.062;11.672;2023-03-08T12:26:22;11.80;;;10.07;;
9481;SDS011;4779;48.062;11.672;2023-03-08T12:28:57;11.03;;;8.77;;
9481;SDS011;4779;48.062;11.672;2023-03-08T12:31:28;11.77;;;8.07;;
9481;SDS011;4779;48.062;11.672;2023-03-08T12:33:59;12.07;;;9.10;;
9481;SDS011;4779;48.062;11.672;2023-03-08T12:36:37;9.73;;;8.10;;
9481;SDS011;4779;48.062;11.672;2023-03-08T12:39:05;11.03;;;8.13;;
9481;SDS011;4779;48.062;11.672;2023-03-08T12:41:34;10.60;;;8.07;;
9481;SDS011;4779;48.062;11.672;2023-03-08T12:44:04;8.07;;;7.23;;
9481;SDS011;4779;48.062;11.672;2023-03-08T12:46:43;10.73;;;7.60;;
9481;SDS011;4779;48.062;11.672;2023-03-08T12:49:17;9.23;;;8.23;;
9481;SDS011;4779;48.062;11.672;2023-03-08T12:51:54;10.93;;;7.40;;
9481;SDS011;4779;48.062;11.672;2023-03-08T12:54:23;9.20;;;7.23;;
9481;SDS011;4779;48.062;11.672;2023-03-08T12:56:53;9.30;;;6.50;;
9481;SDS011;4779;48.062;11.672;2023-03-08T12:59:30;7.70;;;6.10;;
9481;SDS011;4779;48.062;11.672;2023-03-08T13:02:01;8.80;;;6.93;;
9481;SDS011;4779;48.062;11.672;2023-03-08T13:04:46;6.67;;;5.87;;
9481;SDS011;4779;48.062;11.672;2023-03-08T13:07:21;7.60;;;6.03;;
9481;SDS011;4779;48.062;11.672;2023-03-08T13:09:58;8.07;;;6.57;;
9481;SDS011;4779;48.062;11.672;2023-03-08T13:12:33;9.57;;;7.53;;
9481;SDS011;4779;48.062;11.672;2023-03-08T13:17:55;8.60;;;7.37;;
9481;SDS011;4779;48.062;11.672;2023-03-08T13:20:28;8.23;;;5.90;;
9481;SDS011;4779;48.062;11.672;2023-03-08T13:23:18;7.13;;;6.03;;
9481;SDS011;4779;48.062;11.672;2023-03-08T13:25:53;7.70;;;5.20;;
9481;SDS011;4779;48.062;11.672;2023-03-08T13:28:31;3.80;;;3.50;;
9481;SDS011;4779;48.062;11.672;2023-03-08T13:31:02;4.00;;;2.70;;
9481;SDS011;4779;48.062;11.672;2023-03-08T13:33:38;4.77;;;2.60;;
9481;SDS011;4779;48.062;11.672;2023-03-08T13:36:13;1.83;;;1.70;;
9481;SDS011;4779;48.062;11.672;2023-03-08T13:38:42;0.90;;;0.90;;
9481;SDS011;4779;48.062;11.672;2023-03-08T13:41:10;3.10;;;0.80;;
9481;SDS011;4779;48.062;11.672;2023-03-08T13:43:36;0.90;;;0.90;;
9481;SDS011;4779;48.062;11.672;2023-03-08T13:46:09;2.83;;;1.07;;
9481;SDS011;4779;48.062;11.672;2023-03-08T13:48:41;0.60;;;0.60;;
9481;SDS011;4779;48.062;11.672;2023-03-08T13:51:10;0.87;;;0.87;;
9481;SDS011;4779;48.062;11.672;2023-03-08T13:53:43;2.07;;;0.70;;
9481;SDS011;4779;48.062;11.672;2023-03-08T13:56:18;0.70;;;0.70;;
9481;SDS011;4779;48.062;11.672;2023-03-08T13:58:48;2.83;;;0.80;;
9481;SDS011;4779;48.062;11.672;2023-03-08T14:01:18;0.80;;;0.80;;
9481;SDS011;4779;48.062;11.672;2023-03-08T14:03:47;1.90;;;0.70;;
9481;SDS011;4779;48.062;11.672;2023-03-08T14:06:16;0.63;;;0.63;;
9481;SDS011;4779;48.062;11.672;2023-03-08T14:08:44;1.60;;;0.63;;
9481;SDS011;4779;48.062;11.672;2023-03-08T14:11:13;0.97;;;0.80;;
9481;SDS011;4779;48.062;11.672;2023-03-08T14:13:44;1.40;;;0.70;;
9481;SDS011;4779;48.062;11.672;2023-03-08T14:16:23;0.67;;;0.60;;
9481;SDS011;4779;48.062;11.672;2023-03-08T14:18:53;1.03;;;0.80;;
9481;SDS011;4779;48.062;11.672;2023-03-08T14:21:21;1.77;;;0.70;;
9481;SDS011;4779;48.062;11.672;2023-03-08T14:23:50;0.60;;;0.57;;
9481;SDS011;4779;48.062;11.672;2023-03-08T14:26:23;1.90;;;1.03;;
9481;SDS011;4779;48.062;11.672;2023-03-08T14:29:01;1.90;;;0.80;;
9481;SDS011;4779;48.062;11.672;2023-03-08T14:31:36;0.90;;;0.70;;
9481;SDS011;4779;48.062;11.672;2023-03-08T14:34:14;4.00;;;0.83;;
9481;SDS011;4779;48.062;11.672;2023-03-08T14:36:45;0.60;;;0.60;;
9481;SDS011;4779;48.062;11.672;2023-03-08T14:39:19;0.60;;;0.60;;
9481;SDS011;4779;48.062;11.672;2023-03-08T14:41:48;2.13;;;0.93;;
9481;SDS011;4779;48.062;11.672;2023-03-08T14:44:16;1.20;;;0.60;;
9481;SDS011;4779;48.062;11.672;2023-03-08T14:46:47;1.33;;;0.80;;
9481;SDS011;4779;48.062;11.672;2023-03-08T14:49:22;0.40;;;0.40;;
9481;SDS011;4779;48.062;11.672;2023-03-08T14:51:51;1.03;;;0.70;;
9481;SDS011;4779;48.062;11.672;2023-03-08T14:54:19;0.70;;;0.70;;
9481;SDS011;4779;48.062;11.672;2023-03-08T14:56:48;2.47;;;0.70;;
9481;SDS011;4779;48.062;11.672;2023-03-08T14:59:15;1.00;;;0.90;;
9481;SDS011;4779;48.062;11.672;2023-03-08T15:01:43;1.03;;;0.70;;
9481;SDS011;4779;48.062;11.672;2023-03-08T15:04:14;2.97;;;1.10;;
9481;SDS011;4779;48.062;11.672;2023-03-08T15:06:43;1.10;;;0.80;;
9481;SDS011;4779;48.062;11.672;2023-03-08T15:09:11;1.00;;;0.80;;
9481;SDS011;4779;48.062;11.672;2023-03-08T15:11:42;1.03;;;0.60;;
9481;SDS011;4779;48.062;11.672;2023-03-08T15:14:10;3.30;;;1.00;;
9481;SDS011;4779;48.062;11.672;2023-03-08T15:16:37;0.70;;;0.70;;
9481;SDS011;4779;48.062;11.672;2023-03-08T15:19:04;1.20;;;0.90;;
9481;SDS011;4779;48.062;11.672;2023-03-08T15:21:34;1.17;;;0.60;;
9481;SDS011;4779;48.062;11.672;2023-03-08T15:24:02;1.23;;;0.87;;
9481;SDS011;4779;48.062;11.672;2023-03-08T15:26:31;1.73;;;0.90;;
9481;SDS011;4779;48.062;11.672;2023-03-08T15:28:59;1.13;;;0.80;;
9481;SDS011;4779;48.062;11.672;2023-03-08T15:31:27;0.90;;;0.53;;
9481;SDS011;4779;48.062;11.672;2023-03-08T15:33:55;2.90;;;0.80;;
9481;SDS011;4779;48.062;11.672;2023-03-08T15:36:22;1.67;;;0.90;;
9481;SDS011;4779;48.062;11.672;2023-03-08T15:38:51;1.67;;;0.60;;
9481;SDS011;4779;48.062;11.672;2023-03-08T15:41:18;0.77;;;0.60;;